Main page
METAR-TAF:

METAR-TAF

Airports :

Bangalore, India

Kempegowda International Airport

latitude: 13-11-56N, longitude: 077-42-20E, elevation: 915 m

Current weather observation

The report was made 1 hour and 21 minutes ago, at 09:30 UTC
Wind 10 kt from the East/Northeast, varying between West/Northwest and East
Temperature 24°C
Humidity 47%
Pressure 1018 hPa
Visibility: 6000 m
Scattered clouds at a height of 1200 ft

METAR: VOBL 180930Z 06010KT 290V100 6000 SCT012 24/12 Q1018 NOSIG

Time: 16:21 (10:51 UTC)

Forecast

The report was made 2 hours and 51 minutes ago, at 08:00 UTC
Forecast valid from 18 at 09 UTC to 18 at 18 UTC
Wind 10 kt from the East
Visibility: 8000 m
Few clouds at a height of 1500 ft

TAF: VOBL 180800Z 1809/1818 09010KT 8000 FEW015

Weather observations and forecasts of more than 4000 airports (METAR and TAF reports).

The available stations are represented by yellow and red dots on the map.

Hover mouse over dot to see the name of the station.

Then click to see weather observations and forecasts.

To change the map : click on the green buttons with a black cross to zoom in, on the green button with a dash to zoom out, or on the green arrows for adjacent maps.


METAR-TAF: